sensor_id;sensor_type;location;lat;lon;timestamp;temperature;humidity
1355;DHT22;671;48.972;9.276;2023-03-19T00:00:15;10.00;1.00
1355;DHT22;671;48.972;9.276;2023-03-19T00:02:43;10.00;1.00
1355;DHT22;671;48.972;9.276;2023-03-19T00:05:14;10.00;1.00
1355;DHT22;671;48.972;9.276;2023-03-19T00:07:41;9.90;1.00
1355;DHT22;671;48.972;9.276;2023-03-19T00:10:08;9.90;1.00
1355;DHT22;671;48.972;9.276;2023-03-19T00:12:35;9.90;1.00
1355;DHT22;671;48.972;9.276;2023-03-19T00:15:02;9.90;1.00
1355;DHT22;671;48.972;9.276;2023-03-19T00:17:28;9.90;1.00
1355;DHT22;671;48.972;9.276;2023-03-19T00:19:55;9.90;1.00
1355;DHT22;671;48.972;9.276;2023-03-19T00:22:22;9.90;1.00
1355;DHT22;671;48.972;9.276;2023-03-19T00:24:48;9.90;1.00
1355;DHT22;671;48.972;9.276;2023-03-19T00:27:14;10.00;1.00
1355;DHT22;671;48.972;9.276;2023-03-19T00:29:41;10.00;1.00
1355;DHT22;671;48.972;9.276;2023-03-19T00:32:08;10.00;1.00
1355;DHT22;671;48.972;9.276;2023-03-19T00:34:34;10.00;1.00
1355;DHT22;671;48.972;9.276;2023-03-19T00:37:01;10.00;1.00
1355;DHT22;671;48.972;9.276;2023-03-19T00:39:27;10.00;1.00
1355;DHT22;671;48.972;9.276;2023-03-19T00:41:54;10.10;1.00
1355;DHT22;671;48.972;9.276;2023-03-19T00:44:20;10.00;1.00
1355;DHT22;671;48.972;9.276;2023-03-19T00:46:46;10.00;1.00
1355;DHT22;671;48.972;9.276;2023-03-19T00:49:13;10.00;1.00
1355;DHT22;671;48.972;9.276;2023-03-19T00:51:39;10.00;1.00
1355;DHT22;671;48.972;9.276;2023-03-19T00:54:10;10.00;1.00
1355;DHT22;671;48.972;9.276;2023-03-19T00:56:37;10.10;1.00
1355;DHT22;671;48.972;9.276;2023-03-19T00:59:04;10.00;1.00
1355;DHT22;671;48.972;9.276;2023-03-19T01:01:30;10.00;1.00
1355;DHT22;671;48.972;9.276;2023-03-19T01:03:58;10.10;1.00
1355;DHT22;671;48.972;9.276;2023-03-19T01:06:24;10.10;1.00
1355;DHT22;671;48.972;9.276;2023-03-19T01:08:51;10.10;1.00
1355;DHT22;671;48.972;9.276;2023-03-19T01:11:17;10.10;1.00
1355;DHT22;671;48.972;9.276;2023-03-19T01:13:44;10.10;1.00
1355;DHT22;671;48.972;9.276;2023-03-19T01:16:11;10.10;1.00
1355;DHT22;671;48.972;9.276;2023-03-19T01:18:38;10.00;1.00
1355;DHT22;671;48.972;9.276;2023-03-19T01:21:05;10.10;1.00
1355;DHT22;671;48.972;9.276;2023-03-19T01:23:33;10.20;1.00
1355;DHT22;671;48.972;9.276;2023-03-19T01:25:59;10.10;1.00
1355;DHT22;671;48.972;9.276;2023-03-19T01:28:26;10.10;1.00
1355;DHT22;671;48.972;9.276;2023-03-19T01:30:52;10.20;1.00
1355;DHT22;671;48.972;9.276;2023-03-19T01:33:23;10.20;1.00
1355;DHT22;671;48.972;9.276;2023-03-19T01:35:49;10.20;1.00
1355;DHT22;671;48.972;9.276;2023-03-19T01:38:16;10.20;1.00
1355;DHT22;671;48.972;9.276;2023-03-19T01:40:47;10.20;1.00
1355;DHT22;671;48.972;9.276;2023-03-19T01:45:45;10.20;1.00
1355;DHT22;671;48.972;9.276;2023-03-19T01:50:51;10.30;1.00
1355;DHT22;671;48.972;9.276;2023-03-19T01:53:40;10.30;1.00
1355;DHT22;671;48.972;9.276;2023-03-19T01:56:20;10.20;1.00
1355;DHT22;671;48.972;9.276;2023-03-19T01:58:51;10.20;1.00
1355;DHT22;671;48.972;9.276;2023-03-19T02:01:19;10.20;1.00
1355;DHT22;671;48.972;9.276;2023-03-19T02:03:46;10.20;1.00
1355;DHT22;671;48.972;9.276;2023-03-19T02:06:14;10.20;1.00
1355;DHT22;671;48.972;9.276;2023-03-19T02:08:42;10.20;1.00
1355;DHT22;671;48.972;9.276;2023-03-19T02:11:09;10.20;1.00
1355;DHT22;671;48.972;9.276;2023-03-19T02:13:36;10.30;1.00
1355;DHT22;671;48.972;9.276;2023-03-19T02:16:04;10.30;1.00
1355;DHT22;671;48.972;9.276;2023-03-19T02:18:30;10.30;1.00
1355;DHT22;671;48.972;9.276;2023-03-19T02:21:08;10.30;1.00
1355;DHT22;671;48.972;9.276;2023-03-19T02:24:16;10.30;1.00
1355;DHT22;671;48.972;9.276;2023-03-19T02:26:43;10.30;1.00
1355;DHT22;671;48.972;9.276;2023-03-19T02:29:10;10.30;1.00
1355;DHT22;671;48.972;9.276;2023-03-19T02:31:36;10.30;1.00
1355;DHT22;671;48.972;9.276;2023-03-19T02:34:06;10.30;1.00
1355;DHT22;671;48.972;9.276;2023-03-19T02:36:38;10.30;1.00
1355;DHT22;671;48.972;9.276;2023-03-19T02:39:10;10.30;1.00
1355;DHT22;671;48.972;9.276;2023-03-19T02:41:40;10.30;1.00
1355;DHT22;671;48.972;9.276;2023-03-19T02:44:08;10.30;1.00
1355;DHT22;671;48.972;9.276;2023-03-19T02:46:37;10.30;1.00
1355;DHT22;671;48.972;9.276;2023-03-19T02:49:03;10.30;1.00
1355;DHT22;671;48.972;9.276;2023-03-19T02:51:30;10.30;1.00
1355;DHT22;671;48.972;9.276;2023-03-19T02:53:57;10.30;1.00
1355;DHT22;671;48.972;9.276;2023-03-19T02:56:23;10.30;1.00
1355;DHT22;671;48.972;9.276;2023-03-19T02:58:49;10.30;1.00
1355;DHT22;671;48.972;9.276;2023-03-19T03:01:16;10.30;1.00
1355;DHT22;671;48.972;9.276;2023-03-19T03:03:42;10.40;1.00
1355;DHT22;671;48.972;9.276;2023-03-19T03:06:09;10.30;1.00
1355;DHT22;671;48.972;9.276;2023-03-19T03:08:35;10.40;1.00
1355;DHT22;671;48.972;9.276;2023-03-19T03:11:02;10.30;1.00
1355;DHT22;671;48.972;9.276;2023-03-19T03:13:28;10.30;1.00
1355;DHT22;671;48.972;9.276;2023-03-19T03:15:55;10.20;1.00
1355;DHT22;671;48.972;9.276;2023-03-19T03:18:21;10.30;1.00
1355;DHT22;671;48.972;9.276;2023-03-19T03:20:48;10.20;1.00
1355;DHT22;671;48.972;9.276;2023-03-19T03:23:14;10.20;1.00
1355;DHT22;671;48.972;9.276;2023-03-19T03:25:42;10.20;1.00
1355;DHT22;671;48.972;9.276;2023-03-19T03:28:08;10.30;1.00
1355;DHT22;671;48.972;9.276;2023-03-19T03:30:35;10.20;1.00
1355;DHT22;671;48.972;9.276;2023-03-19T03:33:02;10.20;1.00
1355;DHT22;671;48.972;9.276;2023-03-19T03:35:28;10.20;1.00
1355;DHT22;671;48.972;9.276;2023-03-19T03:37:55;10.20;1.00
1355;DHT22;671;48.972;9.276;2023-03-19T03:40:21;10.20;1.00
1355;DHT22;671;48.972;9.276;2023-03-19T03:42:48;10.20;1.00
1355;DHT22;671;48.972;9.276;2023-03-19T03:45:14;10.30;1.00
1355;DHT22;671;48.972;9.276;2023-03-19T03:47:41;10.30;1.00
1355;DHT22;671;48.972;9.276;2023-03-19T03:50:08;10.30;1.00
1355;DHT22;671;48.972;9.276;2023-03-19T03:52:37;10.30;1.00
1355;DHT22;671;48.972;9.276;2023-03-19T03:55:04;10.30;1.00
1355;DHT22;671;48.972;9.276;2023-03-19T03:57:30;10.30;1.00
1355;DHT22;671;48.972;9.276;2023-03-19T03:59:57;10.20;1.00
1355;DHT22;671;48.972;9.276;2023-03-19T04:02:23;10.20;1.00
1355;DHT22;671;48.972;9.276;2023-03-19T04:04:50;10.20;1.00
1355;DHT22;671;48.972;9.276;2023-03-19T04:07:17;10.20;1.00
1355;DHT22;671;48.972;9.276;2023-03-19T04:09:43;10.20;1.00
1355;DHT22;671;48.972;9.276;2023-03-19T04:12:12;10.20;1.00
1355;DHT22;671;48.972;9.276;2023-03-19T04:14:39;10.10;1.00
1355;DHT22;671;48.972;9.276;2023-03-19T04:17:05;10.10;1.00
1355;DHT22;671;48.972;9.276;2023-03-19T04:19:32;10.10;1.00
1355;DHT22;671;48.972;9.276;2023-03-19T04:21:58;10.10;1.00
1355;DHT22;671;48.972;9.276;2023-03-19T04:24:25;10.10;1.00
1355;DHT22;671;48.972;9.276;2023-03-19T04:26:51;10.10;1.00
1355;DHT22;671;48.972;9.276;2023-03-19T04:29:18;10.10;1.00
1355;DHT22;671;48.972;9.276;2023-03-19T04:31:45;10.10;1.00
1355;DHT22;671;48.972;9.276;2023-03-19T04:34:11;10.00;1.00
1355;DHT22;671;48.972;9.276;2023-03-19T04:36:38;10.00;1.00
1355;DHT22;671;48.972;9.276;2023-03-19T04:39:04;10.00;1.00
1355;DHT22;671;48.972;9.276;2023-03-19T04:41:31;10.00;1.00
1355;DHT22;671;48.972;9.276;2023-03-19T04:43:57;10.00;1.00
1355;DHT22;671;48.972;9.276;2023-03-19T04:46:24;10.00;1.00
1355;DHT22;671;48.972;9.276;2023-03-19T04:48:50;10.00;1.00
1355;DHT22;671;48.972;9.276;2023-03-19T04:51:17;10.00;1.00
1355;DHT22;671;48.972;9.276;2023-03-19T04:53:46;10.00;1.00
1355;DHT22;671;48.972;9.276;2023-03-19T04:56:14;10.00;1.00
1355;DHT22;671;48.972;9.276;2023-03-19T04:58:42;10.00;1.00
1355;DHT22;671;48.972;9.276;2023-03-19T05:01:08;10.00;1.00
1355;DHT22;671;48.972;9.276;2023-03-19T05:03:35;10.00;1.00
1355;DHT22;671;48.972;9.276;2023-03-19T05:06:01;10.00;1.00
1355;DHT22;671;48.972;9.276;2023-03-19T05:08:28;10.00;1.00
1355;DHT22;671;48.972;9.276;2023-03-19T05:10:55;10.00;1.00
1355;DHT22;671;48.972;9.276;2023-03-19T05:13:21;10.00;1.00
1355;DHT22;671;48.972;9.276;2023-03-19T05:15:47;10.00;1.00
1355;DHT22;671;48.972;9.276;2023-03-19T05:18:14;10.00;1.00
1355;DHT22;671;48.972;9.276;2023-03-19T05:20:41;10.00;1.00
1355;DHT22;671;48.972;9.276;2023-03-19T05:23:08;10.10;1.00
1355;DHT22;671;48.972;9.276;2023-03-19T05:25:34;10.10;1.00
1355;DHT22;671;48.972;9.276;2023-03-19T05:28:02;10.10;1.00
1355;DHT22;671;48.972;9.276;2023-03-19T05:30:29;10.20;1.00
1355;DHT22;671;48.972;9.276;2023-03-19T05:32:57;10.20;1.00
1355;DHT22;671;48.972;9.276;2023-03-19T05:35:24;10.20;1.00
1355;DHT22;671;48.972;9.276;2023-03-19T05:37:51;10.20;1.00
1355;DHT22;671;48.972;9.276;2023-03-19T05:40:17;10.20;1.00
1355;DHT22;671;48.972;9.276;2023-03-19T05:42:44;10.20;1.00
1355;DHT22;671;48.972;9.276;2023-03-19T05:45:11;10.20;1.00
1355;DHT22;671;48.972;9.276;2023-03-19T05:47:37;10.20;1.00
1355;DHT22;671;48.972;9.276;2023-03-19T05:50:05;10.20;1.00
1355;DHT22;671;48.972;9.276;2023-03-19T05:52:32;10.20;1.00
1355;DHT22;671;48.972;9.276;2023-03-19T05:54:58;10.20;1.00
1355;DHT22;671;48.972;9.276;2023-03-19T05:57:25;10.30;1.00
1355;DHT22;671;48.972;9.276;2023-03-19T05:59:51;10.30;1.00
1355;DHT22;671;48.972;9.276;2023-03-19T06:02:18;10.30;1.00
1355;DHT22;671;48.972;9.276;2023-03-19T06:04:44;10.30;1.00
1355;DHT22;671;48.972;9.276;2023-03-19T06:07:11;10.40;1.00
1355;DHT22;671;48.972;9.276;2023-03-19T06:09:38;10.30;1.00
1355;DHT22;671;48.972;9.276;2023-03-19T06:12:06;10.30;1.00
1355;DHT22;671;48.972;9.276;2023-03-19T06:14:33;10.40;1.00
1355;DHT22;671;48.972;9.276;2023-03-19T06:17:00;10.40;1.00
1355;DHT22;671;48.972;9.276;2023-03-19T06:19:26;10.40;1.00
1355;DHT22;671;48.972;9.276;2023-03-19T06:21:53;10.40;1.00
1355;DHT22;671;48.972;9.276;2023-03-19T06:24:19;10.50;1.00
1355;DHT22;671;48.972;9.276;2023-03-19T06:26:45;10.50;1.00
1355;DHT22;671;48.972;9.276;2023-03-19T06:29:12;10.50;1.00
1355;DHT22;671;48.972;9.276;2023-03-19T06:31:38;10.60;1.00
1355;DHT22;671;48.972;9.276;2023-03-19T06:34:07;10.60;1.00
1355;DHT22;671;48.972;9.276;2023-03-19T06:36:33;10.70;1.00
1355;DHT22;671;48.972;9.276;2023-03-19T06:39:00;10.70;1.00
1355;DHT22;671;48.972;9.276;2023-03-19T06:41:26;10.80;1.00
1355;DHT22;671;48.972;9.276;2023-03-19T06:43:53;10.80;1.00
1355;DHT22;671;48.972;9.276;2023-03-19T06:46:19;10.80;1.00
1355;DHT22;671;48.972;9.276;2023-03-19T06:48:46;10.90;1.00
1355;DHT22;671;48.972;9.276;2023-03-19T06:51:12;10.90;1.00
1355;DHT22;671;48.972;9.276;2023-03-19T06:53:39;11.00;1.00
1355;DHT22;671;48.972;9.276;2023-03-19T06:56:05;11.00;1.00
1355;DHT22;671;48.972;9.276;2023-03-19T06:58:32;11.10;1.00
1355;DHT22;671;48.972;9.276;2023-03-19T07:00:58;11.10;1.00
1355;DHT22;671;48.972;9.276;2023-03-19T07:03:25;11.20;1.00
1355;DHT22;671;48.972;9.276;2023-03-19T07:05:51;11.30;1.00
1355;DHT22;671;48.972;9.276;2023-03-19T07:08:18;11.30;1.00
1355;DHT22;671;48.972;9.276;2023-03-19T07:10:44;11.30;1.00
1355;DHT22;671;48.972;9.276;2023-03-19T07:13:11;11.40;1.00
1355;DHT22;671;48.972;9.276;2023-03-19T07:15:37;11.40;1.00
1355;DHT22;671;48.972;9.276;2023-03-19T07:18:04;11.50;1.00
1355;DHT22;671;48.972;9.276;2023-03-19T07:20:31;11.50;1.00
1355;DHT22;671;48.972;9.276;2023-03-19T07:22:57;11.60;1.00
1355;DHT22;671;48.972;9.276;2023-03-19T07:25:24;11.70;1.00
1355;DHT22;671;48.972;9.276;2023-03-19T07:27:51;11.80;1.00
1355;DHT22;671;48.972;9.276;2023-03-19T07:30:17;12.00;1.00
1355;DHT22;671;48.972;9.276;2023-03-19T07:32:44;12.10;1.00
1355;DHT22;671;48.972;9.276;2023-03-19T07:35:11;12.20;1.00
1355;DHT22;671;48.972;9.276;2023-03-19T07:37:39;12.30;1.00
1355;DHT22;671;48.972;9.276;2023-03-19T07:40:06;12.40;1.00
1355;DHT22;671;48.972;9.276;2023-03-19T07:42:33;12.50;1.00
1355;DHT22;671;48.972;9.276;2023-03-19T07:45:03;12.60;1.00
1355;DHT22;671;48.972;9.276;2023-03-19T07:47:29;12.70;1.00
1355;DHT22;671;48.972;9.276;2023-03-19T07:49:56;12.70;1.00
1355;DHT22;671;48.972;9.276;2023-03-19T07:52:24;12.70;1.00
1355;DHT22;671;48.972;9.276;2023-03-19T07:54:52;12.60;1.00
1355;DHT22;671;48.972;9.276;2023-03-19T07:57:18;12.60;1.00
1355;DHT22;671;48.972;9.276;2023-03-19T07:59:46;12.60;1.00
1355;DHT22;671;48.972;9.276;2023-03-19T08:02:12;12.70;1.00
1355;DHT22;671;48.972;9.276;2023-03-19T08:04:39;12.70;1.00
1355;DHT22;671;48.972;9.276;2023-03-19T08:07:06;12.70;1.00
1355;DHT22;671;48.972;9.276;2023-03-19T08:09:37;12.80;1.00
1355;DHT22;671;48.972;9.276;2023-03-19T08:12:05;12.90;1.00
1355;DHT22;671;48.972;9.276;2023-03-19T08:14:33;13.00;1.00
1355;DHT22;671;48.972;9.276;2023-03-19T08:16:59;13.10;1.00
1355;DHT22;671;48.972;9.276;2023-03-19T08:19:26;13.20;1.00
1355;DHT22;671;48.972;9.276;2023-03-19T08:21:52;13.30;1.00
1355;DHT22;671;48.972;9.276;2023-03-19T08:24:19;13.40;1.00
1355;DHT22;671;48.972;9.276;2023-03-19T08:26:46;13.60;1.00
1355;DHT22;671;48.972;9.276;2023-03-19T08:29:12;13.60;1.00
1355;DHT22;671;48.972;9.276;2023-03-19T08:31:38;13.80;1.00
1355;DHT22;671;48.972;9.276;2023-03-19T08:34:07;13.90;1.00
1355;DHT22;671;48.972;9.276;2023-03-19T08:36:35;14.00;1.00
1355;DHT22;671;48.972;9.276;2023-03-19T08:39:02;14.00;1.00
1355;DHT22;671;48.972;9.276;2023-03-19T08:41:29;14.00;99.90
1355;DHT22;671;48.972;9.276;2023-03-19T08:43:56;14.00;99.90
1355;DHT22;671;48.972;9.276;2023-03-19T08:46:22;14.00;99.90
1355;DHT22;671;48.972;9.276;2023-03-19T08:48:49;14.00;99.90
1355;DHT22;671;48.972;9.276;2023-03-19T08:51:15;14.10;1.00
1355;DHT22;671;48.972;9.276;2023-03-19T08:53:42;14.10;99.90
1355;DHT22;671;48.972;9.276;2023-03-19T08:56:08;14.00;99.90
1355;DHT22;671;48.972;9.276;2023-03-19T08:58:35;13.90;1.00
1355;DHT22;671;48.972;9.276;2023-03-19T09:01:02;13.90;1.00
1355;DHT22;671;48.972;9.276;2023-03-19T09:03:30;14.00;1.00
1355;DHT22;671;48.972;9.276;2023-03-19T09:05:59;13.80;99.90
1355;DHT22;671;48.972;9.276;2023-03-19T09:08:27;13.70;99.90
1355;DHT22;671;48.972;9.276;2023-03-19T09:10:54;13.70;99.90
1355;DHT22;671;48.972;9.276;2023-03-19T09:13:21;13.70;99.90
1355;DHT22;671;48.972;9.276;2023-03-19T09:15:48;13.80;99.90
1355;DHT22;671;48.972;9.276;2023-03-19T09:18:15;13.90;99.90
1355;DHT22;671;48.972;9.276;2023-03-19T09:20:42;14.10;99.90
1355;DHT22;671;48.972;9.276;2023-03-19T09:23:08;14.40;99.90
1355;DHT22;671;48.972;9.276;2023-03-19T09:25:35;14.60;99.90
1355;DHT22;671;48.972;9.276;2023-03-19T09:28:01;14.70;99.00
1355;DHT22;671;48.972;9.276;2023-03-19T09:30:28;14.80;99.90
1355;DHT22;671;48.972;9.276;2023-03-19T09:32:55;14.80;39.80
1355;DHT22;671;48.972;9.276;2023-03-19T09:35:21;14.90;8.00
1355;DHT22;671;48.972;9.276;2023-03-19T09:37:48;14.90;1.00
1355;DHT22;671;48.972;9.276;2023-03-19T09:40:32;14.90;1.00
1355;DHT22;671;48.972;9.276;2023-03-19T09:45:47;15.20;1.00
1355;DHT22;671;48.972;9.276;2023-03-19T09:48:18;15.30;1.00
1355;DHT22;671;48.972;9.276;2023-03-19T09:50:47;15.30;1.00
1355;DHT22;671;48.972;9.276;2023-03-19T09:53:44;15.30;99.90
1355;DHT22;671;48.972;9.276;2023-03-19T09:56:14;15.30;1.00
1355;DHT22;671;48.972;9.276;2023-03-19T09:58:41;15.40;1.00
1355;DHT22;671;48.972;9.276;2023-03-19T10:01:22;15.40;99.90
1355;DHT22;671;48.972;9.276;2023-03-19T10:04:18;15.50;1.00
1355;DHT22;671;48.972;9.276;2023-03-19T10:07:03;15.70;1.00
1355;DHT22;671;48.972;9.276;2023-03-19T10:14:47;15.80;99.90
1355;DHT22;671;48.972;9.276;2023-03-19T10:17:24;15.90;1.00
1355;DHT22;671;48.972;9.276;2023-03-19T10:20:00;15.90;99.90
1355;DHT22;671;48.972;9.276;2023-03-19T10:22:32;15.90;99.90
1355;DHT22;671;48.972;9.276;2023-03-19T10:25:01;16.00;99.90
1355;DHT22;671;48.972;9.276;2023-03-19T10:27:28;16.00;99.90
1355;DHT22;671;48.972;9.276;2023-03-19T10:29:55;16.10;99.90
1355;DHT22;671;48.972;9.276;2023-03-19T10:32:37;16.20;99.90
1355;DHT22;671;48.972;9.276;2023-03-19T10:35:22;16.20;99.90
1355;DHT22;671;48.972;9.276;2023-03-19T10:37:49;16.30;1.00
1355;DHT22;671;48.972;9.276;2023-03-19T10:40:25;16.30;1.00
1355;DHT22;671;48.972;9.276;2023-03-19T10:43:05;16.30;1.00
1355;DHT22;671;48.972;9.276;2023-03-19T10:45:37;16.40;1.00
1355;DHT22;671;48.972;9.276;2023-03-19T10:48:04;16.50;1.00
1355;DHT22;671;48.972;9.276;2023-03-19T10:51:00;16.60;1.00
1355;DHT22;671;48.972;9.276;2023-03-19T10:56:09;16.70;99.90
1355;DHT22;671;48.972;9.276;2023-03-19T11:01:26;16.80;99.90
1355;DHT22;671;48.972;9.276;2023-03-19T11:03:57;16.90;99.90
1355;DHT22;671;48.972;9.276;2023-03-19T11:06:36;17.00;99.90
1355;DHT22;671;48.972;9.276;2023-03-19T11:09:52;17.20;49.20
1355;DHT22;671;48.972;9.276;2023-03-19T11:14:40;17.00;1.00
1355;DHT22;671;48.972;9.276;2023-03-19T11:17:39;17.10;1.00
1355;DHT22;671;48.972;9.276;2023-03-19T11:22:45;17.30;1.00
1355;DHT22;671;48.972;9.276;2023-03-19T11:25:28;17.30;1.00
1355;DHT22;671;48.972;9.276;2023-03-19T11:36:06;17.70;1.00
1355;DHT22;671;48.972;9.276;2023-03-19T11:38:36;17.70;1.00
1355;DHT22;671;48.972;9.276;2023-03-19T11:41:22;17.70;1.00
1355;DHT22;671;48.972;9.276;2023-03-19T11:44:04;17.70;1.00
1355;DHT22;671;48.972;9.276;2023-03-19T11:46:42;17.80;1.00
1355;DHT22;671;48.972;9.276;2023-03-19T11:49:23;17.90;1.00
1355;DHT22;671;48.972;9.276;2023-03-19T11:52:13;18.10;1.00
1355;DHT22;671;48.972;9.276;2023-03-19T12:06:00;18.50;1.00
1355;DHT22;671;48.972;9.276;2023-03-19T12:08:41;18.80;1.00
1355;DHT22;671;48.972;9.276;2023-03-19T12:16:47;19.40;1.00
1355;DHT22;671;48.972;9.276;2023-03-19T12:19:48;19.40;1.00
1355;DHT22;671;48.972;9.276;2023-03-19T12:33:28;19.40;1.00
1355;DHT22;671;48.972;9.276;2023-03-19T12:36:02;19.40;1.00
1355;DHT22;671;48.972;9.276;2023-03-19T12:38:43;19.50;1.00
1355;DHT22;671;48.972;9.276;2023-03-19T12:41:22;19.50;99.90
1355;DHT22;671;48.972;9.276;2023-03-19T12:46:44;19.60;99.90
1355;DHT22;671;48.972;9.276;2023-03-19T12:49:30;19.60;99.90
1355;DHT22;671;48.972;9.276;2023-03-19T12:52:14;19.50;99.90
1355;DHT22;671;48.972;9.276;2023-03-19T12:54:47;19.50;99.90
1355;DHT22;671;48.972;9.276;2023-03-19T13:08:16;19.00;1.00
1355;DHT22;671;48.972;9.276;2023-03-19T13:10:44;18.40;1.00
1355;DHT22;671;48.972;9.276;2023-03-19T13:16:14;17.50;1.00
1355;DHT22;671;48.972;9.276;2023-03-19T13:18:56;17.20;1.00
1355;DHT22;671;48.972;9.276;2023-03-19T13:21:29;16.90;1.00
1355;DHT22;671;48.972;9.276;2023-03-19T13:26:52;16.70;1.00
1355;DHT22;671;48.972;9.276;2023-03-19T13:29:22;16.60;1.00
1355;DHT22;671;48.972;9.276;2023-03-19T13:31:50;16.60;1.00
1355;DHT22;671;48.972;9.276;2023-03-19T13:36:50;16.30;1.00
1355;DHT22;671;48.972;9.276;2023-03-19T13:39:19;16.20;1.00
1355;DHT22;671;48.972;9.276;2023-03-19T13:41:51;16.10;1.00
1355;DHT22;671;48.972;9.276;2023-03-19T13:44:30;16.00;99.90
1355;DHT22;671;48.972;9.276;2023-03-19T13:47:02;16.10;99.90
1355;DHT22;671;48.972;9.276;2023-03-19T13:54:53;16.20;1.00
1355;DHT22;671;48.972;9.276;2023-03-19T13:57:33;16.30;99.90
1355;DHT22;671;48.972;9.276;2023-03-19T14:01:05;16.50;99.90
1355;DHT22;671;48.972;9.276;2023-03-19T14:03:22;16.60;99.90
1355;DHT22;671;48.972;9.276;2023-03-19T14:05:51;16.70;99.90
1355;DHT22;671;48.972;9.276;2023-03-19T14:08:21;16.80;99.90
1355;DHT22;671;48.972;9.276;2023-03-19T14:10:51;16.80;99.90
1355;DHT22;671;48.972;9.276;2023-03-19T14:13:28;16.80;99.90
1355;DHT22;671;48.972;9.276;2023-03-19T14:16:06;16.90;1.00
1355;DHT22;671;48.972;9.276;2023-03-19T14:18:39;16.80;1.00
1355;DHT22;671;48.972;9.276;2023-03-19T14:21:16;16.80;1.00
1355;DHT22;671;48.972;9.276;2023-03-19T14:23:52;16.80;99.90
1355;DHT22;671;48.972;9.276;2023-03-19T14:26:22;16.80;1.00
1355;DHT22;671;48.972;9.276;2023-03-19T14:29:03;16.80;1.00
1355;DHT22;671;48.972;9.276;2023-03-19T14:31:48;16.90;1.00
1355;DHT22;671;48.972;9.276;2023-03-19T14:34:33;16.80;1.00
1355;DHT22;671;48.972;9.276;2023-03-19T14:37:21;16.80;1.00
1355;DHT22;671;48.972;9.276;2023-03-19T14:39:53;16.80;99.90
1355;DHT22;671;48.972;9.276;2023-03-19T14:42:31;16.60;1.00
1355;DHT22;671;48.972;9.276;2023-03-19T14:55:55;15.70;99.90
1355;DHT22;671;48.972;9.276;2023-03-19T14:58:27;15.50;99.90
1355;DHT22;671;48.972;9.276;2023-03-19T15:00:54;15.40;1.80
1355;DHT22;671;48.972;9.276;2023-03-19T15:03:31;15.30;1.00
1355;DHT22;671;48.972;9.276;2023-03-19T15:06:00;15.20;62.60
1355;DHT22;671;48.972;9.276;2023-03-19T15:08:30;15.10;1.00
1355;DHT22;671;48.972;9.276;2023-03-19T15:13:53;14.90;99.90
1355;DHT22;671;48.972;9.276;2023-03-19T15:18:48;14.80;99.90
1355;DHT22;671;48.972;9.276;2023-03-19T15:21:15;14.80;1.00
1355;DHT22;671;48.972;9.276;2023-03-19T15:23:45;14.80;1.00
1355;DHT22;671;48.972;9.276;2023-03-19T15:26:12;14.70;1.00
1355;DHT22;671;48.972;9.276;2023-03-19T15:28:46;14.70;1.00
1355;DHT22;671;48.972;9.276;2023-03-19T15:31:13;14.80;1.00
1355;DHT22;671;48.972;9.276;2023-03-19T15:33:41;14.70;99.90
1355;DHT22;671;48.972;9.276;2023-03-19T15:36:15;14.70;99.90
1355;DHT22;671;48.972;9.276;2023-03-19T15:41:17;14.70;99.90
1355;DHT22;671;48.972;9.276;2023-03-19T15:43:45;14.60;1.00
1355;DHT22;671;48.972;9.276;2023-03-19T15:46:17;14.70;1.00
1355;DHT22;671;48.972;9.276;2023-03-19T15:48:55;14.60;1.00
1355;DHT22;671;48.972;9.276;2023-03-19T15:51:24;14.60;1.00
1355;DHT22;671;48.972;9.276;2023-03-19T15:53:51;14.60;1.00
1355;DHT22;671;48.972;9.276;2023-03-19T15:56:19;14.60;1.00
1355;DHT22;671;48.972;9.276;2023-03-19T15:58:49;14.60;1.00
1355;DHT22;671;48.972;9.276;2023-03-19T16:01:17;14.60;1.00
1355;DHT22;671;48.972;9.276;2023-03-19T16:03:49;14.50;1.00
1355;DHT22;671;48.972;9.276;2023-03-19T16:08:54;14.40;1.00
1355;DHT22;671;48.972;9.276;2023-03-19T16:14:01;14.30;1.00
1355;DHT22;671;48.972;9.276;2023-03-19T16:16:34;14.40;1.00
1355;DHT22;671;48.972;9.276;2023-03-19T16:19:04;14.30;1.00
1355;DHT22;671;48.972;9.276;2023-03-19T16:21:41;14.40;1.00
1355;DHT22;671;48.972;9.276;2023-03-19T16:26:50;14.40;1.00
1355;DHT22;671;48.972;9.276;2023-03-19T16:29:56;14.30;1.00
1355;DHT22;671;48.972;9.276;2023-03-19T16:32:28;14.30;1.00
1355;DHT22;671;48.972;9.276;2023-03-19T16:42:43;14.30;1.00
1355;DHT22;671;48.972;9.276;2023-03-19T16:47:53;14.20;1.00
1355;DHT22;671;48.972;9.276;2023-03-19T16:50:22;14.10;1.00
1355;DHT22;671;48.972;9.276;2023-03-19T16:52:55;14.10;1.00
1355;DHT22;671;48.972;9.276;2023-03-19T16:55:25;14.10;1.00
1355;DHT22;671;48.972;9.276;2023-03-19T16:57:55;14.00;1.00
1355;DHT22;671;48.972;9.276;2023-03-19T17:00:24;13.90;1.00
1355;DHT22;671;48.972;9.276;2023-03-19T17:02:51;13.90;1.00
1355;DHT22;671;48.972;9.276;2023-03-19T17:05:21;13.80;1.00
1355;DHT22;671;48.972;9.276;2023-03-19T17:07:47;13.70;1.00
1355;DHT22;671;48.972;9.276;2023-03-19T17:10:17;13.70;1.00
1355;DHT22;671;48.972;9.276;2023-03-19T17:12:46;13.70;1.00
1355;DHT22;671;48.972;9.276;2023-03-19T17:15:35;13.70;1.00
1355;DHT22;671;48.972;9.276;2023-03-19T17:18:09;13.60;1.00
1355;DHT22;671;48.972;9.276;2023-03-19T17:20:45;13.60;1.00
1355;DHT22;671;48.972;9.276;2023-03-19T17:23:13;13.50;1.00
1355;DHT22;671;48.972;9.276;2023-03-19T17:25:40;13.50;1.00
1355;DHT22;671;48.972;9.276;2023-03-19T17:28:06;13.50;1.00
1355;DHT22;671;48.972;9.276;2023-03-19T17:30:33;13.50;1.00
1355;DHT22;671;48.972;9.276;2023-03-19T17:32:59;13.40;1.00
1355;DHT22;671;48.972;9.276;2023-03-19T17:35:26;13.40;1.00
1355;DHT22;671;48.972;9.276;2023-03-19T17:37:52;13.30;1.00
1355;DHT22;671;48.972;9.276;2023-03-19T17:40:20;13.30;1.00
1355;DHT22;671;48.972;9.276;2023-03-19T17:42:47;13.20;1.00
1355;DHT22;671;48.972;9.276;2023-03-19T17:45:16;13.10;1.00
1355;DHT22;671;48.972;9.276;2023-03-19T17:47:47;13.00;1.00
1355;DHT22;671;48.972;9.276;2023-03-19T17:50:17;12.90;1.00
1355;DHT22;671;48.972;9.276;2023-03-19T17:52:44;12.90;1.00
1355;DHT22;671;48.972;9.276;2023-03-19T17:55:16;12.80;1.00
1355;DHT22;671;48.972;9.276;2023-03-19T17:57:43;12.80;1.00
1355;DHT22;671;48.972;9.276;2023-03-19T18:00:11;12.80;1.00
1355;DHT22;671;48.972;9.276;2023-03-19T18:02:39;12.70;1.00
1355;DHT22;671;48.972;9.276;2023-03-19T18:05:16;12.70;1.00
1355;DHT22;671;48.972;9.276;2023-03-19T18:07:44;12.70;1.00
1355;DHT22;671;48.972;9.276;2023-03-19T18:10:16;12.60;1.00
1355;DHT22;671;48.972;9.276;2023-03-19T18:12:43;12.50;1.00
1355;DHT22;671;48.972;9.276;2023-03-19T18:15:11;12.50;1.00
1355;DHT22;671;48.972;9.276;2023-03-19T18:17:40;12.50;1.00
1355;DHT22;671;48.972;9.276;2023-03-19T18:20:13;12.50;1.00
1355;DHT22;671;48.972;9.276;2023-03-19T18:22:40;12.60;1.00
1355;DHT22;671;48.972;9.276;2023-03-19T18:25:21;12.60;1.00
1355;DHT22;671;48.972;9.276;2023-03-19T18:27:48;12.60;1.00
1355;DHT22;671;48.972;9.276;2023-03-19T18:30:17;12.60;1.00
1355;DHT22;671;48.972;9.276;2023-03-19T18:32:47;12.60;1.00
1355;DHT22;671;48.972;9.276;2023-03-19T18:35:29;12.60;1.00
1355;DHT22;671;48.972;9.276;2023-03-19T18:37:56;12.60;1.00
1355;DHT22;671;48.972;9.276;2023-03-19T18:40:26;12.60;1.00
1355;DHT22;671;48.972;9.276;2023-03-19T18:42:53;12.50;1.00
1355;DHT22;671;48.972;9.276;2023-03-19T18:45:19;12.50;1.00
1355;DHT22;671;48.972;9.276;2023-03-19T18:47:46;12.50;1.00
1355;DHT22;671;48.972;9.276;2023-03-19T18:50:29;12.50;1.00
1355;DHT22;671;48.972;9.276;2023-03-19T18:52:57;12.50;1.00